x

Port Colborne (45142) Weather Station

6:00pm - Fri 22nd Sep 2017 All times are CDT. -5 hours from GMT.

  • Peak Period 2s
  • Wind
    4mph, 4mph gusts
  • Sea Temp 74°f
  • Air Temp 74°f
  • Sea Pressure 1018.7mb
  • Port Colborne
  • Port Colborne

More Historic Weather Station data

Upgrade to MSW Pro to gain access to the past 30 days of data for over 8000 Wavebouys and Weather Stations around the globe.

Join

Comparision Forecast

View Surf forecast
   
Fri 09/22 6:00pm  -  2s 4 4 mph 1018.7mb 74f 74f
5:00pm 0.3ft 4s  -  2 mph 1018.4mb 74f 79f
4:00pm 0.3ft 4s  -  2 mph 1018.6mb 74f 76f
3:00pm  -  3s 2 2 mph 1018.9mb 74f 76f
2:00pm 0.3ft 3s 4 4 mph 1019.5mb 74f 74f
1:00pm  -  2s 2 2 mph 1020mb 73f 73f
12:00pm 0.3ft 2s 4 4 mph 1020.5mb 73f 71f
11:00am 0.3ft 2s 4 7 mph 1020.8mb 72f 71f
10:00am 0.3ft 2s 7 9 mph 1021mb 71f 69f
9:00am 0.3ft 2s 7 7 mph 1021.2mb 71f 68f
8:00am 0.3ft 2s 9 9 mph 1020.8mb 71f 69f
7:00am 0.3ft 4s 4 7 mph 1020.7mb 71f 69f
6:00am 0.3ft 4s 7 9 mph 1020.5mb 71f 69f
5:00am 0.3ft 2s 4 7 mph 1020mb 71f 70f
4:00am 0.3ft 2s 7 9 mph 1019.8mb 71f 70f
3:00am 0.3ft 2s 4 7 mph 1019.6mb 71f 70f
2:00am 0.3ft 2s 9 9 mph 1019.2mb 71f 70f
1:00am 0.3ft 2s 9 11 mph 1019.4mb 71f 70f
12:00am 0.3ft 3s 11 13 mph 1019.3mb 71f 71f
Thu 09/21 11:00pm 0.7ft 3s 7 9 mph 1019.6mb 71f 72f
10:00pm 0.7ft 3s 9 9 mph 1019.5mb 71f 72f
9:00pm 0.7ft 2s 11 13 mph 1019.4mb 72f 73f
8:00pm 0.3ft 2s 11 13 mph 1019.2mb 72f 73f
7:00pm 0.3ft 3s 9 11 mph 1018.8mb 73f 74f
6:00pm 0.3ft 4s 9 11 mph 1018.5mb 74f 75f
5:00pm 0.3ft 4s 2 2 mph 1018.2mb 75f 77f
4:00pm  -  2s 2 2 mph 1018.4mb 75f 76f
3:00pm  -  2s 2 4 mph 1018.7mb 75f 76f
2:00pm  -  2s 2 2 mph 1018.9mb 74f 75f
11:00am 0.3ft 2s 4 7 mph 1019.8mb 72f 70f
10:00am 0.3ft 2s 7 9 mph 1020mb 71f 70f
9:00am 0.3ft 2s 4 4 mph 1020mb 71f 69f
8:00am 0.7ft 2s 9 11 mph 1019.3mb 71f 67f
7:00am 0.7ft 2s 7 9 mph 1019.5mb 70f 67f
6:00am 0.3ft 2s 11 13 mph 1018.8mb 71f 68f
5:00am 0.3ft 2s 7 9 mph 1018.9mb 71f 69f
4:00am 0.3ft 2s 9 11 mph 1018.7mb 71f 70f
3:00am 0.3ft 2s 9 11 mph 1018.6mb 71f 70f
2:00am 0.3ft 2s 9 11 mph 1018.3mb 71f 70f
1:00am 0.3ft 2s 9 11 mph 1017.6mb 71f 71f
12:00am 0.3ft 3s 9 9 mph 1017.1mb 71f 71f
Wed 09/20 11:00pm 0.3ft 2s 7 9 mph 1016.7mb 71f 71f
10:00pm 0.3ft 2s 9 11 mph 1016.7mb 71f 72f
9:00pm 0.3ft 4s 11 13 mph 1016.7mb 72f 73f
8:00pm  -  5s 9 9 mph 1016.7mb 72f 73f
7:00pm 0.3ft 5s 7 9 mph 1016.6mb 72f 73f
6:00pm 0.3ft 4s 7 7 mph 1016mb 73f 74f
5:00pm  -  2s 4 7 mph 1015.5mb 74f 73f
4:00pm  -  2s 2 2 mph 1015.5mb 74f 76f
3:00pm  -  2s 2 2 mph 1015.4mb 74f 76f
2:00pm 0.3ft 2s 2 4 mph 1015.8mb 74f 74f
1:00pm 0.3ft 4s 4 4 mph 1016.3mb 73f 72f
12:00pm 0.3ft 4s 4 4 mph 1016.9mb 72f 71f
11:00am 0.3ft 4s 4 4 mph 1017mb 72f 70f
10:00am 0.3ft 3s 4 7 mph 1017.2mb 71f 69f
9:00am 0.3ft 4s 7 7 mph 1017.1mb 71f 68f
8:00am 0.3ft 2s 7 9 mph 1017mb 71f 67f
7:00am 0.7ft 2s 4 7 mph 1016.7mb 70f 68f
6:00am 0.3ft 2s 11 13 mph 1015.9mb 70f 68f
5:00am 0.3ft 2s 11 13 mph 1015.2mb 70f 68f
4:00am 0.3ft 2s 11 11 mph 1015.1mb 71f 69f
3:00am 0.3ft 2s 7 7 mph 1015.1mb 71f 69f
2:00am 0.3ft 2s 7 7 mph 1015.1mb 71f 70f
1:00am 0.3ft 4s 4 4 mph 1015.2mb 71f 70f
12:00am 0.3ft 2s 4 7 mph 1015mb 71f 71f
Tue 09/19 11:00pm 0.3ft 2s 11 13 mph 1014.9mb 71f 71f
10:00pm 0.3ft 2s 9 11 mph 1015.1mb 71f 72f
9:00pm 0.3ft 2s 11 11 mph 1015mb 72f 72f
8:00pm 0.3ft 2s 11 13 mph 1015.1mb 72f 72f
7:00pm 0.3ft 3s 9 9 mph 1015mb 73f 73f
6:00pm  -  2s 9 11 mph 1014.6mb 73f 75f
5:00pm  -  2s 4 4 mph 1014.5mb 74f 74f
4:00pm 0.3ft 3s 4 4 mph 1014.6mb 74f 74f
3:00pm 0.3ft 2s 4 4 mph 1014.6mb 75f 74f
2:00pm 0.3ft 2s 2 4 mph 1015mb 75f 73f
1:00pm 0.3ft 2s 2 2 mph 1015.9mb 74f 73f
12:00pm 0.3ft 2s 2 2 mph 1016.4mb 74f 73f
11:00am 0.7ft 2s 2 2 mph 1016.9mb 72f 73f
10:00am 0.7ft 2s 4 4 mph 1016.8mb 71f 71f
9:00am 0.7ft 2s 9 9 mph 1016.8mb 71f 70f
8:00am 0.7ft 3s 9 9 mph 1016.6mb 71f 71f
7:00am 0.3ft 2s 9 11 mph 1016.6mb 71f 71f
6:00am 0.3ft 2s 7 9 mph 1016.6mb 71f 71f
5:00am 0.3ft 2s 11 11 mph 1016mb 71f 71f
4:00am 0.3ft 3s 9 13 mph 1016mb 71f 72f
3:00am 0.3ft 2s 2 2 mph 1016.1mb 71f 70f
2:00am 0.3ft 2s 2 2 mph 1016mb 71f 70f
1:00am 0.3ft 2s 4 7 mph 1016.1mb 71f 70f